createdAt,value
2018-08-27T00:00:34.280Z,1009.75
2018-08-27T00:01:44.250Z,1009.74
2018-08-27T00:02:54.218Z,1009.79
2018-08-27T00:04:03.917Z,1009.78
2018-08-27T00:05:13.623Z,1009.76
2018-08-27T00:06:23.583Z,1009.79
2018-08-27T00:07:33.598Z,1009.76
2018-08-27T00:08:43.570Z,1009.77
2018-08-27T00:09:53.025Z,1009.75
2018-08-27T00:11:02.989Z,1009.79
2018-08-27T00:12:12.946Z,1009.79
2018-08-27T00:13:22.654Z,1009.77
2018-08-27T00:14:32.620Z,1009.74
2018-08-27T00:15:42.326Z,1009.81
2018-08-27T00:16:52.022Z,1009.75
2018-08-27T00:18:01.473Z,1009.73
2018-08-27T00:19:11.435Z,1009.79
2018-08-27T00:20:21.147Z,1009.74
2018-08-27T00:21:31.107Z,1009.73
2018-08-27T00:22:40.811Z,1009.73
2018-08-27T00:23:50.525Z,1009.7
2018-08-27T00:25:00.483Z,1009.7
2018-08-27T00:26:10.456Z,1009.67
2018-08-27T00:27:20.417Z,1009.63
2018-08-27T00:28:30.400Z,1009.64
2018-08-27T00:29:40.095Z,1009.6
2018-08-27T00:30:49.799Z,1009.58
2018-08-27T00:31:59.752Z,1009.53
2018-08-27T00:33:09.721Z,1009.55
2018-08-27T00:34:19.430Z,1009.56
2018-08-27T00:35:29.154Z,1009.58
2018-08-27T00:36:39.116Z,1009.58
2018-08-27T00:37:49.083Z,1009.59
2018-08-27T00:38:59.043Z,1009.58
2018-08-27T00:40:09.008Z,1009.58
2018-08-27T00:41:18.976Z,1009.61
2018-08-27T00:42:28.200Z,1009.59
2018-08-27T00:43:38.159Z,1009.6
2018-08-27T00:44:48.136Z,1009.61
2018-08-27T00:45:57.824Z,1009.56
2018-08-27T00:47:07.528Z,1009.59
2018-08-27T00:48:17.480Z,1009.63
2018-08-27T00:49:27.182Z,1009.56
2018-08-27T00:50:36.897Z,1009.65
2018-08-27T00:51:46.595Z,1009.63
2018-08-27T00:52:56.555Z,1009.64
2018-08-27T00:54:06.531Z,1009.6
2018-08-27T00:55:16.503Z,1009.59
2018-08-27T00:56:26.469Z,1009.58
2018-08-27T00:57:36.425Z,1009.58
2018-08-27T00:58:46.133Z,1009.58
2018-08-27T00:59:56.093Z,1009.56
2018-08-27T01:01:06.057Z,1009.54
2018-08-27T01:02:15.763Z,1009.54
2018-08-27T01:03:25.469Z,1009.5
2018-08-27T01:04:35.181Z,1009.51
2018-08-27T01:05:44.620Z,1009.51
2018-08-27T01:06:54.595Z,1009.48
2018-08-27T01:08:04.570Z,1009.49
2018-08-27T01:09:14.527Z,1009.48
2018-08-27T01:10:24.490Z,1009.48
2018-08-27T01:11:34.453Z,1009.46
2018-08-27T01:12:44.159Z,1009.46
2018-08-27T01:13:54.125Z,1009.43
2018-08-27T01:15:04.092Z,1009.41
2018-08-27T01:16:13.537Z,1009.39
2018-08-27T01:17:23.506Z,1009.39
2018-08-27T01:18:33.477Z,1009.38
2018-08-27T01:19:43.184Z,1009.36
2018-08-27T01:20:53.152Z,1009.35
2018-08-27T01:22:03.125Z,1009.33
2018-08-27T01:23:12.832Z,1009.33
2018-08-27T01:24:22.785Z,1009.31
2018-08-27T01:25:32.753Z,1009.34
2018-08-27T01:26:42.719Z,1009.33
2018-08-27T01:27:52.681Z,1009.35
2018-08-27T01:29:02.383Z,1009.33
2018-08-27T01:30:11.830Z,1009.29
2018-08-27T01:31:21.787Z,1009.33
2018-08-27T01:32:31.484Z,1009.31
2018-08-27T01:33:41.183Z,1009.3
2018-08-27T01:34:51.158Z,1009.33
2018-08-27T01:36:00.859Z,1009.24
2018-08-27T01:37:10.822Z,1009.25
2018-08-27T01:38:20.766Z,1009.25
2018-08-27T01:39:30.468Z,1009.24
2018-08-27T01:40:40.446Z,1009.23
2018-08-27T01:41:50.407Z,1009.22
2018-08-27T01:43:00.360Z,1009.22
2018-08-27T01:44:10.078Z,1009.22
2018-08-27T01:45:20.035Z,1009.19
2018-08-27T01:46:30.016Z,1009.23
2018-08-27T01:47:39.981Z,1009.16
2018-08-27T01:48:49.690Z,1009.17
2018-08-27T01:49:59.654Z,1009.16
2018-08-27T01:51:09.621Z,1009.16
2018-08-27T01:52:19.318Z,1009.2
2018-08-27T01:53:29.333Z,1009.18
2018-08-27T01:54:39.284Z,1009.22
2018-08-27T01:55:49.265Z,1009.18
2018-08-27T01:56:58.983Z,1009.12
2018-08-27T01:58:08.947Z,1009.14
2018-08-27T01:59:18.916Z,1009.13
2018-08-27T02:00:28.865Z,1009.15
2018-08-27T02:01:38.822Z,1009.13
2018-08-27T02:02:48.779Z,1009.18
2018-08-27T02:03:58.764Z,1009.21
2018-08-27T02:05:08.472Z,1009.29
2018-08-27T02:06:17.658Z,1009.22
2018-08-27T02:07:27.618Z,1009.22
2018-08-27T02:08:37.586Z,1009.3
2018-08-27T02:09:47.556Z,1009.2
2018-08-27T02:10:57.261Z,1009.25
2018-08-27T02:12:06.966Z,1009.2
2018-08-27T02:13:16.932Z,1009.23
2018-08-27T02:14:26.374Z,1009.21
2018-08-27T02:15:36.070Z,1009.18
2018-08-27T02:16:45.773Z,1009.15
2018-08-27T02:17:55.746Z,1009.14
2018-08-27T02:19:05.699Z,1009.17
2018-08-27T02:20:15.666Z,1009.12
2018-08-27T02:21:25.647Z,1009.07
2018-08-27T02:22:35.141Z,1009.05
2018-08-27T02:23:45.097Z,1009.06
2018-08-27T02:24:55.049Z,1009.07
2018-08-27T02:26:05.013Z,1009.1
2018-08-27T02:27:14.712Z,1009.09
2018-08-27T02:28:24.676Z,1009.12
2018-08-27T02:29:34.643Z,1009.11
2018-08-27T02:30:44.345Z,1009.12
2018-08-27T02:31:54.322Z,1009.08
2018-08-27T02:33:04.038Z,1009.14
2018-08-27T02:34:14.012Z,1009.07
2018-08-27T02:35:24.048Z,1009.04
2018-08-27T02:36:33.774Z,1009.02
2018-08-27T02:37:43.736Z,1009.04
2018-08-27T02:38:53.698Z,1009.03
2018-08-27T02:40:03.673Z,1009.02
2018-08-27T02:41:13.379Z,1008.95
2018-08-27T02:42:23.358Z,1009
2018-08-27T02:43:33.336Z,1008.94
2018-08-27T02:44:43.300Z,1008.9
2018-08-27T02:45:52.745Z,1008.9
2018-08-27T02:47:02.700Z,1008.87
2018-08-27T02:48:12.656Z,1008.85
2018-08-27T02:49:22.647Z,1008.84
2018-08-27T02:50:32.610Z,1008.83
2018-08-27T02:51:42.567Z,1008.86
2018-08-27T02:52:52.538Z,1008.81
2018-08-27T02:54:02.247Z,1008.83
2018-08-27T02:55:11.688Z,1008.79
2018-08-27T02:56:21.397Z,1008.83
2018-08-27T02:57:31.361Z,1008.81
2018-08-27T02:58:41.323Z,1008.76
2018-08-27T02:59:51.019Z,1008.83
2018-08-27T03:01:00.727Z,1008.77
2018-08-27T03:02:10.689Z,1008.79
2018-08-27T03:03:20.661Z,1008.75
2018-08-27T03:04:30.628Z,1008.79
2018-08-27T03:05:40.344Z,1008.71
2018-08-27T03:06:50.332Z,1008.72
2018-08-27T03:08:00.031Z,1008.66
2018-08-27T03:09:09.737Z,1008.69
2018-08-27T03:10:19.704Z,1008.68
2018-08-27T03:11:29.668Z,1008.65
2018-08-27T03:12:39.629Z,1008.63
2018-08-27T03:13:49.592Z,1008.64
2018-08-27T03:14:59.287Z,1008.63
2018-08-27T03:16:08.744Z,1008.63
2018-08-27T03:17:18.454Z,1008.59
2018-08-27T03:18:28.245Z,1008.56
2018-08-27T03:19:38.380Z,1008.56
2018-08-27T03:20:48.334Z,1008.59
2018-08-27T03:21:58.042Z,1008.58
2018-08-27T03:23:08.018Z,1008.58
2018-08-27T03:24:17.995Z,1008.61
2018-08-27T03:25:27.722Z,1008.65
2018-08-27T03:26:37.436Z,1008.59
2018-08-27T03:27:47.144Z,1008.61
2018-08-27T03:28:57.103Z,1008.63
2018-08-27T03:30:07.052Z,1008.6
2018-08-27T03:31:16.763Z,1008.55
2018-08-27T03:32:26.745Z,1008.59
2018-08-27T03:33:36.700Z,1008.54
2018-08-27T03:34:46.424Z,1008.54
2018-08-27T03:35:56.393Z,1008.48
2018-08-27T03:37:06.109Z,1008.52
2018-08-27T03:38:15.819Z,1008.52
2018-08-27T03:39:25.785Z,1008.53
2018-08-27T03:40:35.806Z,1008.52
2018-08-27T03:41:46.073Z,1008.49
2018-08-27T03:42:56.059Z,1008.51
2018-08-27T03:44:06.030Z,1008.5
2018-08-27T03:45:15.740Z,1008.51
2018-08-27T03:46:25.459Z,1008.42
2018-08-27T03:47:35.417Z,1008.46
2018-08-27T03:48:45.120Z,1008.48
2018-08-27T03:49:55.084Z,1008.49
2018-08-27T03:51:04.794Z,1008.49
2018-08-27T03:52:14.254Z,1008.47
2018-08-27T03:53:24.211Z,1008.44
2018-08-27T03:54:34.181Z,1008.48
2018-08-27T03:55:44.147Z,1008.47
2018-08-27T03:56:53.848Z,1008.46
2018-08-27T03:58:03.301Z,1008.46
2018-08-27T03:59:13.011Z,1008.45
2018-08-27T04:00:22.731Z,1008.48
2018-08-27T04:01:32.695Z,1008.51
2018-08-27T04:02:42.651Z,1008.48
2018-08-27T04:03:52.615Z,1008.5
2018-08-27T04:05:02.321Z,1008.51
2018-08-27T04:06:12.131Z,1008.54
2018-08-27T04:07:22.140Z,1008.53
2018-08-27T04:08:32.145Z,1008.54
2018-08-27T04:09:42.111Z,1008.56
2018-08-27T04:10:52.077Z,1008.53
2018-08-27T04:12:01.781Z,1008.52
2018-08-27T04:13:11.485Z,1008.57
2018-08-27T04:14:21.200Z,1008.59
2018-08-27T04:15:31.168Z,1008.61
2018-08-27T04:16:40.871Z,1008.6
2018-08-27T04:17:50.858Z,1008.57
2018-08-27T04:19:00.570Z,1008.57
2018-08-27T04:20:10.274Z,1008.55
2018-08-27T04:21:20.318Z,1008.55
2018-08-27T04:22:30.285Z,1008.54
2018-08-27T04:23:40.251Z,1008.55
2018-08-27T04:24:50.222Z,1008.56
2018-08-27T04:26:00.192Z,1008.52
2018-08-27T04:27:10.160Z,1008.52
2018-08-27T04:28:20.118Z,1008.5
2018-08-27T04:29:30.110Z,1008.49
2018-08-27T04:30:40.079Z,1008.5
2018-08-27T04:31:50.059Z,1008.49
2018-08-27T04:32:59.763Z,1008.52
2018-08-27T04:34:09.466Z,1008.49
2018-08-27T04:35:19.170Z,1008.46
2018-08-27T04:36:28.886Z,1008.45
2018-08-27T04:37:38.852Z,1008.5
2018-08-27T04:38:48.789Z,1008.48
2018-08-27T04:39:58.745Z,1008.49
2018-08-27T04:41:08.202Z,1008.43
2018-08-27T04:42:17.650Z,1008.47
2018-08-27T04:43:27.846Z,1008.46
2018-08-27T04:44:37.819Z,1008.46
2018-08-27T04:45:47.529Z,1008.49
2018-08-27T04:46:57.550Z,1008.49
2018-08-27T04:48:07.571Z,1008.48
2018-08-27T04:49:17.529Z,1008.43
2018-08-27T04:50:27.260Z,1008.46
2018-08-27T04:51:36.959Z,1008.43
2018-08-27T04:52:46.709Z,1008.35
2018-08-27T04:53:56.706Z,1008.34
2018-08-27T04:55:06.676Z,1008.37
2018-08-27T04:56:16.406Z,1008.38
2018-08-27T04:57:26.380Z,1008.34
2018-08-27T04:58:36.385Z,1008.32
2018-08-27T04:59:46.342Z,1008.34
2018-08-27T05:00:56.054Z,1008.32
2018-08-27T05:02:06.025Z,1008.27
2018-08-27T05:03:15.999Z,1008.3
2018-08-27T05:04:25.953Z,1008.25
2018-08-27T05:05:35.939Z,1008.23
2018-08-27T05:06:45.918Z,1008.2
2018-08-27T05:07:55.363Z,1008.26
2018-08-27T05:09:05.341Z,1008.2
2018-08-27T05:10:15.048Z,1008.21
2018-08-27T05:11:24.768Z,1008.17
2018-08-27T05:12:34.801Z,1008.25
2018-08-27T05:13:44.922Z,1008.26
2018-08-27T05:14:54.636Z,1008.22
2018-08-27T05:16:04.603Z,1008.22
2018-08-27T05:17:14.569Z,1008.19
2018-08-27T05:18:24.547Z,1008.2
2018-08-27T05:19:34.003Z,1008.21
2018-08-27T05:20:43.976Z,1008.18
2018-08-27T05:21:53.692Z,1008.16
2018-08-27T05:23:03.653Z,1008.19
2018-08-27T05:24:13.357Z,1008.16
2018-08-27T05:25:23.334Z,1008.16
2018-08-27T05:26:33.051Z,1008.21
2018-08-27T05:27:43.037Z,1008.17
2018-08-27T05:28:53.009Z,1008.2
2018-08-27T05:30:03.024Z,1008.13
2018-08-27T05:31:12.736Z,1008.13
2018-08-27T05:32:23.204Z,1008.14
2018-08-27T05:33:32.677Z,1008.14
2018-08-27T05:34:42.659Z,1008.1
2018-08-27T05:35:52.645Z,1008.06
2018-08-27T05:37:02.637Z,1008.04
2018-08-27T05:38:12.680Z,1008.04
2018-08-27T05:39:22.751Z,1007.97
2018-08-27T05:40:32.731Z,1007.98
2018-08-27T05:41:42.686Z,1007.93
2018-08-27T05:42:52.667Z,1007.88
2018-08-27T05:44:02.370Z,1007.94
2018-08-27T05:45:12.113Z,1007.92
2018-08-27T05:46:22.070Z,1007.93
2018-08-27T05:47:32.076Z,1008
2018-08-27T05:48:41.981Z,1007.97
2018-08-27T05:49:51.995Z,1008
2018-08-27T05:51:01.974Z,1007.94
2018-08-27T05:52:11.798Z,1007.88
2018-08-27T05:53:22.612Z,1007.9
2018-08-27T05:54:32.736Z,1007.89
2018-08-27T05:55:42.728Z,1007.9
2018-08-27T05:56:52.707Z,1007.91
2018-08-27T05:58:02.425Z,1007.92
2018-08-27T05:59:12.400Z,1007.95
2018-08-27T06:00:22.381Z,1007.91
2018-08-27T06:01:32.374Z,1007.93
2018-08-27T06:02:42.845Z,1007.94
2018-08-27T06:03:52.593Z,1007.94
2018-08-27T06:05:02.299Z,1007.94
2018-08-27T06:06:12.037Z,1007.89
2018-08-27T06:07:22.068Z,1007.92
2018-08-27T06:08:32.043Z,1007.9
2018-08-27T06:09:42.023Z,1007.85
2018-08-27T06:10:52.184Z,1007.85
2018-08-27T06:12:01.965Z,1007.76
2018-08-27T06:13:11.939Z,1007.78
2018-08-27T06:14:21.915Z,1007.74
2018-08-27T06:15:31.884Z,1007.75
2018-08-27T06:16:41.991Z,1007.64
2018-08-27T06:17:52.056Z,1007.66
2018-08-27T06:19:02.027Z,1007.61
2018-08-27T06:20:11.999Z,1007.59
2018-08-27T06:21:21.972Z,1007.57
2018-08-27T06:22:31.949Z,1007.67
2018-08-27T06:23:41.907Z,1007.61
2018-08-27T06:24:51.893Z,1007.59
2018-08-27T06:26:01.787Z,1007.62
2018-08-27T06:27:11.499Z,1007.67
2018-08-27T06:28:21.458Z,1007.56
2018-08-27T06:29:31.442Z,1007.6
2018-08-27T06:30:41.410Z,1007.6
2018-08-27T06:31:51.133Z,1007.54
2018-08-27T06:33:00.840Z,1007.57
2018-08-27T06:34:10.826Z,1007.57
2018-08-27T06:35:20.786Z,1007.55
2018-08-27T06:36:30.505Z,1007.59
2018-08-27T06:37:40.607Z,1007.56
2018-08-27T06:38:50.700Z,1007.58
2018-08-27T06:40:00.710Z,1007.56
2018-08-27T06:41:10.414Z,1007.58
2018-08-27T06:42:19.620Z,1007.53
2018-08-27T06:43:29.334Z,1007.48
2018-08-27T06:44:39.064Z,1007.49
2018-08-27T06:45:49.033Z,1007.49
2018-08-27T06:46:59.016Z,1007.5
2018-08-27T06:48:08.531Z,1007.48
2018-08-27T06:49:18.257Z,1007.5
2018-08-27T06:50:28.255Z,1007.43
2018-08-27T06:51:38.226Z,1007.37
2018-08-27T06:52:47.947Z,1007.35
2018-08-27T06:53:57.916Z,1007.25
2018-08-27T06:55:07.999Z,1007.29
2018-08-27T06:56:17.955Z,1007.25
2018-08-27T06:57:27.945Z,1007.23
2018-08-27T06:58:37.906Z,1007.24
2018-08-27T06:59:47.903Z,1007.16
2018-08-27T07:00:57.880Z,1007.22
2018-08-27T07:02:07.848Z,1007.22
2018-08-27T07:03:17.727Z,1007.18
2018-08-27T07:04:27.730Z,1007.32
2018-08-27T07:05:37.714Z,1007.23
2018-08-27T07:06:47.432Z,1007.27
2018-08-27T07:07:57.394Z,1007.25
2018-08-27T07:09:07.130Z,1007.28
2018-08-27T07:10:16.585Z,1007.23
2018-08-27T07:11:26.333Z,1007.17
2018-08-27T07:12:35.873Z,1007.24
2018-08-27T07:13:45.940Z,1007.21
2018-08-27T07:14:55.925Z,1007.17
2018-08-27T07:16:05.644Z,1007.17
2018-08-27T07:17:15.646Z,1007.17
2018-08-27T07:18:25.414Z,1007.19
2018-08-27T07:19:35.377Z,1007.18
2018-08-27T07:20:45.353Z,1007.17
2018-08-27T07:21:55.088Z,1007.21
2018-08-27T07:23:04.796Z,1007.2
2018-08-27T07:24:14.777Z,1007.2
2018-08-27T07:25:24.757Z,1007.21
2018-08-27T07:26:34.480Z,1007.21
2018-08-27T07:27:44.459Z,1007.21
2018-08-27T07:28:54.178Z,1007.23
2018-08-27T07:30:03.893Z,1007.21
2018-08-27T07:31:13.891Z,1007.21
2018-08-27T07:32:23.922Z,1007.23
2018-08-27T07:33:33.631Z,1007.29
2018-08-27T07:34:43.568Z,1007.12
2018-08-27T07:35:53.297Z,1007.2
2018-08-27T07:37:03.304Z,1007.17
2018-08-27T07:38:13.028Z,1007.11
2018-08-27T07:39:22.748Z,1007.17
2018-08-27T07:40:32.782Z,1007.08
2018-08-27T07:41:42.767Z,1007.13
2018-08-27T07:42:52.759Z,1007.1
2018-08-27T07:44:02.744Z,1007.1
2018-08-27T07:45:12.740Z,1007.07
2018-08-27T07:46:22.497Z,1007.09
2018-08-27T07:47:32.477Z,1007.09
2018-08-27T07:48:42.189Z,1007.06
2018-08-27T07:49:52.160Z,1007.03
2018-08-27T07:51:02.193Z,1006.99
2018-08-27T07:52:12.138Z,1007
2018-08-27T07:53:21.595Z,1007.05
2018-08-27T07:54:31.098Z,1006.96
2018-08-27T07:55:40.810Z,1007.02
2018-08-27T07:56:51.049Z,1006.99
2018-08-27T07:58:00.777Z,1006.96
2018-08-27T07:59:10.762Z,1006.94
2018-08-27T08:00:20.485Z,1006.97
2018-08-27T08:01:30.475Z,1006.96
2018-08-27T08:02:39.953Z,1006.98
2018-08-27T08:03:49.927Z,1006.96
2018-08-27T08:04:59.895Z,1006.95
2018-08-27T08:06:09.871Z,1006.99
2018-08-27T08:07:19.608Z,1007.14
2018-08-27T08:08:29.969Z,1006.95
2018-08-27T08:09:39.680Z,1006.9
2018-08-27T08:10:49.399Z,1006.92
2018-08-27T08:11:59.111Z,1006.85
2018-08-27T08:13:08.571Z,1006.87
2018-08-27T08:14:18.544Z,1006.86
2018-08-27T08:15:28.258Z,1006.9
2018-08-27T08:16:38.247Z,1006.85
2018-08-27T08:17:48.228Z,1006.83
2018-08-27T08:18:58.215Z,1006.8
2018-08-27T08:20:07.924Z,1006.84
2018-08-27T08:21:17.632Z,1006.83
2018-08-27T08:22:27.623Z,1006.82
2018-08-27T08:23:37.665Z,1006.85
2018-08-27T08:24:47.381Z,1006.85
2018-08-27T08:25:56.834Z,1006.74
2018-08-27T08:27:06.559Z,1006.8
2018-08-27T08:28:16.273Z,1006.64
2018-08-27T08:29:26.257Z,1006.77
2018-08-27T08:30:36.230Z,1006.69
2018-08-27T08:31:46.205Z,1006.72
2018-08-27T08:32:55.943Z,1006.78
2018-08-27T08:34:06.081Z,1006.62
2018-08-27T08:35:15.806Z,1006.71
2018-08-27T08:36:25.536Z,1006.67
2018-08-27T08:37:35.517Z,1006.79
2018-08-27T08:38:44.972Z,1006.76
2018-08-27T08:39:54.486Z,1006.84
2018-08-27T08:41:05.393Z,1006.56
2018-08-27T08:42:15.390Z,1006.59
2018-08-27T08:43:25.155Z,1006.69
2018-08-27T08:44:35.145Z,1006.69
2018-08-27T08:45:44.604Z,1006.56
2018-08-27T08:46:54.341Z,1006.74
2018-08-27T08:48:04.372Z,1006.72
2018-08-27T08:49:14.361Z,1006.71
2018-08-27T08:50:24.365Z,1006.7
2018-08-27T08:51:34.356Z,1006.74
2018-08-27T08:52:44.126Z,1006.78
2018-08-27T08:53:54.127Z,1006.7
2018-08-27T08:55:03.868Z,1006.77
2018-08-27T08:56:13.614Z,1006.75
2018-08-27T08:57:23.348Z,1006.71
2018-08-27T08:58:33.379Z,1006.72
2018-08-27T08:59:43.371Z,1006.76
2018-08-27T09:00:53.444Z,1006.69
2018-08-27T09:02:03.486Z,1006.77
2018-08-27T09:03:13.499Z,1006.65
2018-08-27T09:04:23.489Z,1006.59
2018-08-27T09:05:33.472Z,1006.7
2018-08-27T09:06:43.482Z,1006.77
2018-08-27T09:07:53.469Z,1006.54
2018-08-27T09:09:03.523Z,1006.71
2018-08-27T09:10:13.901Z,1006.64
2018-08-27T09:11:23.871Z,1006.59
2018-08-27T09:12:33.861Z,1006.64
2018-08-27T09:13:43.828Z,1006.65
2018-08-27T09:14:53.801Z,1006.58
2018-08-27T09:16:03.276Z,1006.67
2018-08-27T09:17:12.802Z,1006.5
2018-08-27T09:18:23.019Z,1006.58
2018-08-27T09:19:32.483Z,1006.74
2018-08-27T09:20:42.466Z,1006.66
2018-08-27T09:21:52.449Z,1006.76
2018-08-27T09:23:02.435Z,1006.69
2018-08-27T09:24:12.409Z,1006.61
2018-08-27T09:25:21.858Z,1006.31
2018-08-27T09:26:31.572Z,1006.67
2018-08-27T09:27:41.553Z,1006.69
2018-08-27T09:28:51.518Z,1006.51
2018-08-27T09:30:01.256Z,1006.66
2018-08-27T09:31:11.255Z,1006.62
2018-08-27T09:32:21.590Z,1006.55
2018-08-27T09:33:31.327Z,1006.58
2018-08-27T09:34:41.046Z,1006.6
2018-08-27T09:35:50.804Z,1006.74
2018-08-27T09:37:00.811Z,1006.63
2018-08-27T09:38:11.253Z,1006.7
2018-08-27T09:39:20.989Z,1006.73
2018-08-27T09:40:30.970Z,1006.6
2018-08-27T09:41:41.055Z,1006.63
2018-08-27T09:42:51.258Z,1006.65
2018-08-27T09:44:01.024Z,1006.57
2018-08-27T09:45:11.018Z,1006.62
2018-08-27T09:46:21.000Z,1006.64
2018-08-27T09:47:31.006Z,1006.55
2018-08-27T09:48:40.719Z,1006.57
2018-08-27T09:49:50.445Z,1006.59
2018-08-27T09:51:00.172Z,1006.42
2018-08-27T09:52:09.900Z,1006.71
2018-08-27T09:53:19.891Z,1006.7
2018-08-27T09:54:29.877Z,1006.59
2018-08-27T09:55:39.861Z,1006.7
2018-08-27T09:56:49.902Z,1006.64
2018-08-27T09:57:59.628Z,1006.69
2018-08-27T09:59:09.378Z,1006.54
2018-08-27T10:00:19.890Z,1006.45
2018-08-27T10:01:29.939Z,1006.68
2018-08-27T10:02:39.938Z,1006.57
2018-08-27T10:03:49.917Z,1006.41
2018-08-27T10:04:59.899Z,1006.49
2018-08-27T10:06:09.627Z,1006.45
2018-08-27T10:07:19.605Z,1006.44
2018-08-27T10:08:29.330Z,1006.44
2018-08-27T10:09:39.030Z,1006.43
2018-08-27T10:10:48.779Z,1006.38
2018-08-27T10:11:58.511Z,1006.46
2018-08-27T10:13:08.498Z,1006.36
2018-08-27T10:14:18.497Z,1006.42
2018-08-27T10:15:28.528Z,1006.35
2018-08-27T10:16:38.551Z,1006.42
2018-08-27T10:17:48.551Z,1006.64
2018-08-27T10:18:58.270Z,1006.51
2018-08-27T10:20:07.992Z,1006.57
2018-08-27T10:21:17.979Z,1006.58
2018-08-27T10:22:28.044Z,1006.59
2018-08-27T10:23:38.520Z,1006.39
2018-08-27T10:24:48.501Z,1006.59
2018-08-27T10:25:58.213Z,1006.68
2018-08-27T10:27:08.196Z,1006.47
2018-08-27T10:28:17.665Z,1006.52
2018-08-27T10:29:27.392Z,1006.51
2018-08-27T10:30:37.381Z,1006.5
2018-08-27T10:31:47.431Z,1006.48
2018-08-27T10:32:57.436Z,1006.38
2018-08-27T10:34:07.401Z,1006.39
2018-08-27T10:35:17.373Z,1006.31
2018-08-27T10:36:27.391Z,1006.37
2018-08-27T10:37:37.372Z,1006.34
2018-08-27T10:38:47.100Z,1006.44
2018-08-27T10:39:57.312Z,1006.32
2018-08-27T10:41:07.321Z,1006.32
2018-08-27T10:42:17.533Z,1006.39
2018-08-27T10:43:27.560Z,1006.34
2018-08-27T10:44:37.284Z,1006.29
2018-08-27T10:45:46.768Z,1006.22
2018-08-27T10:46:56.758Z,1006.19
2018-08-27T10:48:06.751Z,1006.23
2018-08-27T10:49:16.483Z,1006.16
2018-08-27T10:50:26.474Z,1006.24
2018-08-27T10:51:36.445Z,1006.29
2018-08-27T10:52:46.450Z,1006.13
2018-08-27T10:53:56.441Z,1006.31
2018-08-27T10:55:06.165Z,1006.17
2018-08-27T10:56:16.369Z,1006.21
2018-08-27T10:57:26.359Z,1006.42
2018-08-27T10:58:35.819Z,1006.13
2018-08-27T10:59:45.832Z,1006.28
2018-08-27T11:00:55.834Z,1006.17
2018-08-27T11:02:05.829Z,1006.28
2018-08-27T11:03:15.802Z,1006.32
2018-08-27T11:04:25.519Z,1006.39
2018-08-27T11:05:35.599Z,1006.34
2018-08-27T11:06:45.582Z,1006.22
2018-08-27T11:07:55.304Z,1006.59
2018-08-27T11:09:05.034Z,1006.18
2018-08-27T11:10:15.018Z,1006.33
2018-08-27T11:11:24.745Z,1006.12
2018-08-27T11:12:34.748Z,1006.32
2018-08-27T11:13:44.768Z,1006.19
2018-08-27T11:14:54.755Z,1006.11
2018-08-27T11:16:04.837Z,1006.26
2018-08-27T11:17:14.538Z,1006.03
2018-08-27T11:18:24.561Z,1006.31
2018-08-27T11:19:34.646Z,1006.07
2018-08-27T11:20:45.654Z,1006.15
2018-08-27T11:21:55.765Z,1006.18
2018-08-27T11:23:05.734Z,1006.17
2018-08-27T11:24:15.470Z,1006.02
2018-08-27T11:25:25.505Z,1006.15
2018-08-27T11:26:35.719Z,1006.13
2018-08-27T11:27:47.009Z,1006.12
2018-08-27T11:28:56.756Z,1006.22
2018-08-27T11:30:06.534Z,1006.18
2018-08-27T11:31:16.256Z,1006.43
2018-08-27T11:32:25.980Z,1006.32
2018-08-27T11:33:35.705Z,1006.42
2018-08-27T11:34:45.415Z,1006.12
2018-08-27T11:35:55.143Z,1006.21
2018-08-27T11:37:04.846Z,1006.47
2018-08-27T11:38:14.566Z,1006.19
2018-08-27T11:39:24.546Z,1006.3
2018-08-27T11:40:34.519Z,1006.3
2018-08-27T11:41:44.508Z,1006.33
2018-08-27T11:42:54.244Z,1006.33
2018-08-27T11:44:04.208Z,1006.27
2018-08-27T11:45:13.651Z,1006.33
2018-08-27T11:46:23.644Z,1006.23
2018-08-27T11:47:33.644Z,1006.14
2018-08-27T11:48:43.856Z,1006.43
2018-08-27T11:49:53.566Z,1006.33
2018-08-27T11:51:03.393Z,1006.39
2018-08-27T11:52:13.886Z,1006.41
2018-08-27T11:53:23.902Z,1006.39
2018-08-27T11:54:33.891Z,1006.35
2018-08-27T11:55:43.959Z,1006.15
2018-08-27T11:56:53.669Z,1006.36
2018-08-27T11:58:03.688Z,1006.48
2018-08-27T11:59:13.611Z,1006.64
2018-08-27T12:00:23.350Z,1006.5
2018-08-27T12:01:33.224Z,1006.49
2018-08-27T12:02:43.212Z,1006.19
2018-08-27T12:03:53.187Z,1006.33
2018-08-27T12:05:03.170Z,1006.26
2018-08-27T12:06:13.160Z,1006.39
2018-08-27T12:07:23.442Z,1006.31
2018-08-27T12:08:33.175Z,1006.35
2018-08-27T12:09:43.206Z,1006.32
2018-08-27T12:10:53.189Z,1006.28
2018-08-27T12:12:03.579Z,1006.24
2018-08-27T12:13:13.749Z,1006.27
2018-08-27T12:14:23.852Z,1006.44
2018-08-27T12:15:34.346Z,1006.28
2018-08-27T12:16:45.129Z,1006.29
2018-08-27T12:17:55.617Z,1006.28
2018-08-27T12:19:05.343Z,1006.33
2018-08-27T12:20:15.374Z,1006.27
2018-08-27T12:21:25.783Z,1006.12
2018-08-27T12:22:35.607Z,1006.11
2018-08-27T12:23:45.901Z,1006.24
2018-08-27T12:24:56.788Z,1006.37
2018-08-27T12:26:06.552Z,1006.19
2018-08-27T12:27:16.579Z,1006.27
2018-08-27T12:28:26.612Z,1006.2
2018-08-27T12:29:37.065Z,1006.25
2018-08-27T12:30:47.701Z,1006.34
2018-08-27T12:31:57.850Z,1006.29
2018-08-27T12:33:07.937Z,1006.4
2018-08-27T12:34:18.832Z,1006.35
2018-08-27T12:35:28.579Z,1006.25
2018-08-27T12:36:38.778Z,1006.29
2018-08-27T12:37:50.214Z,1006.52
2018-08-27T12:39:00.298Z,1006.25
2018-08-27T12:40:10.322Z,1006.32
2018-08-27T12:41:20.093Z,1006.52
2018-08-27T12:42:29.968Z,1006.28
2018-08-27T12:43:40.148Z,1006.37
2018-08-27T12:44:51.093Z,1006.44
2018-08-27T12:46:01.208Z,1006.37
2018-08-27T12:47:11.273Z,1006.42
2018-08-27T12:48:21.439Z,1006.37
2018-08-27T12:49:31.179Z,1006.39
2018-08-27T12:50:41.193Z,1006.41
2018-08-27T12:51:51.461Z,1006.22
2018-08-27T12:53:01.221Z,1006.42
2018-08-27T12:54:10.964Z,1006.31
2018-08-27T12:55:20.732Z,1006.32
2018-08-27T12:56:30.462Z,1006.3
2018-08-27T12:57:40.455Z,1006.34
2018-08-27T12:58:50.008Z,1006.34
2018-08-27T13:00:00.568Z,1006.37
2018-08-27T13:01:10.027Z,1006.41
2018-08-27T13:02:19.750Z,1006.34
2018-08-27T13:03:29.482Z,1006.37
2018-08-27T13:04:39.691Z,1006.34
2018-08-27T13:05:49.278Z,1006.47
2018-08-27T13:06:59.347Z,1006.37
2018-08-27T13:08:09.471Z,1006.38
2018-08-27T13:09:19.490Z,1006.38
2018-08-27T13:10:29.459Z,1006.39
2018-08-27T13:11:39.458Z,1006.45
2018-08-27T13:12:49.696Z,1006.42
2018-08-27T13:14:00.230Z,1006.38
2018-08-27T13:15:10.245Z,1006.44
2018-08-27T13:16:20.300Z,1006.43
2018-08-27T13:17:30.063Z,1006.44
2018-08-27T13:18:39.551Z,1006.47
2018-08-27T13:19:49.604Z,1006.48
2018-08-27T13:20:59.094Z,1006.49
2018-08-27T13:22:08.814Z,1006.45
2018-08-27T13:23:18.784Z,1006.45
2018-08-27T13:24:28.753Z,1006.43
2018-08-27T13:25:38.786Z,1006.48
2018-08-27T13:26:49.094Z,1006.46
2018-08-27T13:27:59.081Z,1006.36
2018-08-27T13:29:08.800Z,1006.29
2018-08-27T13:30:18.918Z,1006.4
2018-08-27T13:31:29.291Z,1006.29
2018-08-27T13:32:40.455Z,1006.3
2018-08-27T13:33:50.432Z,1006.29
2018-08-27T13:35:00.157Z,1006.23
2018-08-27T13:36:10.157Z,1006.27
2018-08-27T13:37:20.121Z,1006.31
2018-08-27T13:38:30.112Z,1006.59
2018-08-27T13:39:39.835Z,1006.3
2018-08-27T13:40:49.818Z,1006.24
2018-08-27T13:41:59.802Z,1006.25
2018-08-27T13:43:09.784Z,1006.15
2018-08-27T13:44:19.530Z,1006.55
2018-08-27T13:45:29.508Z,1006.42
2018-08-27T13:46:39.258Z,1006.24
2018-08-27T13:47:49.250Z,1006.36
2018-08-27T13:48:58.966Z,1006.42
2018-08-27T13:50:08.427Z,1006.41
2018-08-27T13:51:18.420Z,1006.3
2018-08-27T13:52:28.158Z,1006.34
2018-08-27T13:53:37.614Z,1006.5
2018-08-27T13:54:47.600Z,1006.37
2018-08-27T13:55:57.582Z,1006.33
2018-08-27T13:57:07.558Z,1006.33
2018-08-27T13:58:17.268Z,1006.31
2018-08-27T13:59:26.992Z,1006.32
2018-08-27T14:00:36.976Z,1006.34
2018-08-27T14:01:46.949Z,1006.39
2018-08-27T14:02:56.915Z,1006.37
2018-08-27T14:04:06.904Z,1006.34
2018-08-27T14:05:16.712Z,1006.33
2018-08-27T14:06:27.291Z,1006.28
2018-08-27T14:07:37.579Z,1006.22
2018-08-27T14:08:47.597Z,1006.46